sensor_id;sensor_type;location;lat;lon;timestamp;temperature;humidity
28761;DHT22;15917;50.014;8.352;2023-08-21T00:01:33;24.80;99.90
28761;DHT22;15917;50.014;8.352;2023-08-21T00:03:59;24.80;99.90
28761;DHT22;15917;50.014;8.352;2023-08-21T00:06:24;24.70;99.90
28761;DHT22;15917;50.014;8.352;2023-08-21T00:08:50;24.70;99.90
28761;DHT22;15917;50.014;8.352;2023-08-21T00:11:16;24.70;99.90
28761;DHT22;15917;50.014;8.352;2023-08-21T00:13:41;24.70;99.90
28761;DHT22;15917;50.014;8.352;2023-08-21T00:16:10;24.70;99.90
28761;DHT22;15917;50.014;8.352;2023-08-21T00:18:36;24.70;99.90
28761;DHT22;15917;50.014;8.352;2023-08-21T00:21:02;24.70;99.90
28761;DHT22;15917;50.014;8.352;2023-08-21T00:23:27;24.70;99.90
28761;DHT22;15917;50.014;8.352;2023-08-21T00:25:53;24.60;99.90
28761;DHT22;15917;50.014;8.352;2023-08-21T00:28:19;24.70;99.90
28761;DHT22;15917;50.014;8.352;2023-08-21T00:30:44;24.60;99.90
28761;DHT22;15917;50.014;8.352;2023-08-21T00:33:10;24.60;99.90
28761;DHT22;15917;50.014;8.352;2023-08-21T00:35:35;24.60;99.90
28761;DHT22;15917;50.014;8.352;2023-08-21T00:38:01;24.60;99.90
28761;DHT22;15917;50.014;8.352;2023-08-21T00:40:28;24.60;99.90
28761;DHT22;15917;50.014;8.352;2023-08-21T00:42:53;24.50;99.90
28761;DHT22;15917;50.014;8.352;2023-08-21T00:45:20;24.50;99.90
28761;DHT22;15917;50.014;8.352;2023-08-21T00:47:45;24.50;99.90
28761;DHT22;15917;50.014;8.352;2023-08-21T00:50:11;24.50;99.90
28761;DHT22;15917;50.014;8.352;2023-08-21T00:52:38;24.50;99.90
28761;DHT22;15917;50.014;8.352;2023-08-21T00:55:06;24.50;99.90
28761;DHT22;15917;50.014;8.352;2023-08-21T00:57:33;24.50;99.90
28761;DHT22;15917;50.014;8.352;2023-08-21T01:00:00;24.50;99.90
28761;DHT22;15917;50.014;8.352;2023-08-21T01:02:26;24.50;99.90
28761;DHT22;15917;50.014;8.352;2023-08-21T01:04:51;24.50;99.90
28761;DHT22;15917;50.014;8.352;2023-08-21T01:07:17;24.50;99.90
28761;DHT22;15917;50.014;8.352;2023-08-21T01:09:50;24.50;99.90
28761;DHT22;15917;50.014;8.352;2023-08-21T01:12:23;24.50;99.90
28761;DHT22;15917;50.014;8.352;2023-08-21T01:15:03;24.40;99.90
28761;DHT22;15917;50.014;8.352;2023-08-21T01:17:33;24.40;99.90
28761;DHT22;15917;50.014;8.352;2023-08-21T01:20:01;24.30;99.90
28761;DHT22;15917;50.014;8.352;2023-08-21T01:22:34;24.30;99.90
28761;DHT22;15917;50.014;8.352;2023-08-21T01:25:00;24.30;99.90
28761;DHT22;15917;50.014;8.352;2023-08-21T01:27:26;24.30;99.90
28761;DHT22;15917;50.014;8.352;2023-08-21T01:29:51;24.20;99.90
28761;DHT22;15917;50.014;8.352;2023-08-21T01:32:27;24.20;99.90
28761;DHT22;15917;50.014;8.352;2023-08-21T01:34:55;24.20;99.90
28761;DHT22;15917;50.014;8.352;2023-08-21T01:37:22;24.10;99.90
28761;DHT22;15917;50.014;8.352;2023-08-21T01:39:49;24.10;99.90
28761;DHT22;15917;50.014;8.352;2023-08-21T01:42:14;24.10;99.90
28761;DHT22;15917;50.014;8.352;2023-08-21T01:44:40;24.10;99.90
28761;DHT22;15917;50.014;8.352;2023-08-21T01:47:06;24.10;99.90
28761;DHT22;15917;50.014;8.352;2023-08-21T01:49:32;24.10;99.90
28761;DHT22;15917;50.014;8.352;2023-08-21T01:51:57;24.00;99.90
28761;DHT22;15917;50.014;8.352;2023-08-21T01:54:24;24.00;99.90
28761;DHT22;15917;50.014;8.352;2023-08-21T01:56:50;24.00;99.90
28761;DHT22;15917;50.014;8.352;2023-08-21T01:59:16;24.00;99.90
28761;DHT22;15917;50.014;8.352;2023-08-21T02:01:42;24.00;99.90
28761;DHT22;15917;50.014;8.352;2023-08-21T02:04:08;23.90;99.90
28761;DHT22;15917;50.014;8.352;2023-08-21T02:06:34;23.90;99.90
28761;DHT22;15917;50.014;8.352;2023-08-21T02:08:59;23.80;99.90
28761;DHT22;15917;50.014;8.352;2023-08-21T02:11:25;23.80;99.90
28761;DHT22;15917;50.014;8.352;2023-08-21T02:13:51;23.90;99.90
28761;DHT22;15917;50.014;8.352;2023-08-21T02:16:17;23.90;99.90
28761;DHT22;15917;50.014;8.352;2023-08-21T02:18:43;23.90;99.90
28761;DHT22;15917;50.014;8.352;2023-08-21T02:21:08;24.00;99.90
28761;DHT22;15917;50.014;8.352;2023-08-21T02:23:34;23.90;99.90
28761;DHT22;15917;50.014;8.352;2023-08-21T02:25:59;24.00;99.90
28761;DHT22;15917;50.014;8.352;2023-08-21T02:28:25;23.90;99.90
28761;DHT22;15917;50.014;8.352;2023-08-21T02:30:51;23.80;99.90
28761;DHT22;15917;50.014;8.352;2023-08-21T02:33:16;23.90;99.90
28761;DHT22;15917;50.014;8.352;2023-08-21T02:35:43;23.80;99.90
28761;DHT22;15917;50.014;8.352;2023-08-21T02:38:08;23.80;99.90
28761;DHT22;15917;50.014;8.352;2023-08-21T02:40:35;23.80;99.90
28761;DHT22;15917;50.014;8.352;2023-08-21T02:43:01;23.80;99.90
28761;DHT22;15917;50.014;8.352;2023-08-21T02:45:26;23.80;99.90
28761;DHT22;15917;50.014;8.352;2023-08-21T02:47:52;23.70;99.90
28761;DHT22;15917;50.014;8.352;2023-08-21T02:50:17;23.70;99.90
28761;DHT22;15917;50.014;8.352;2023-08-21T02:52:43;23.60;99.90
28761;DHT22;15917;50.014;8.352;2023-08-21T02:55:09;23.60;99.90
28761;DHT22;15917;50.014;8.352;2023-08-21T02:57:34;23.50;99.90
28761;DHT22;15917;50.014;8.352;2023-08-21T03:00:00;23.60;99.90
28761;DHT22;15917;50.014;8.352;2023-08-21T03:02:26;23.50;99.90
28761;DHT22;15917;50.014;8.352;2023-08-21T03:04:52;23.50;99.90
28761;DHT22;15917;50.014;8.352;2023-08-21T03:07:18;23.50;99.90
28761;DHT22;15917;50.014;8.352;2023-08-21T03:09:45;23.50;99.90
28761;DHT22;15917;50.014;8.352;2023-08-21T03:12:12;23.50;99.90
28761;DHT22;15917;50.014;8.352;2023-08-21T03:14:38;23.60;99.90
28761;DHT22;15917;50.014;8.352;2023-08-21T03:17:03;23.60;99.90
28761;DHT22;15917;50.014;8.352;2023-08-21T03:19:29;23.60;99.90
28761;DHT22;15917;50.014;8.352;2023-08-21T03:21:55;23.60;99.90
28761;DHT22;15917;50.014;8.352;2023-08-21T03:24:21;23.60;99.90
28761;DHT22;15917;50.014;8.352;2023-08-21T03:26:48;23.50;99.90
28761;DHT22;15917;50.014;8.352;2023-08-21T03:29:13;23.60;99.90
28761;DHT22;15917;50.014;8.352;2023-08-21T03:31:40;23.50;99.90
28761;DHT22;15917;50.014;8.352;2023-08-21T03:34:06;23.40;99.90
28761;DHT22;15917;50.014;8.352;2023-08-21T03:36:31;23.40;99.90
28761;DHT22;15917;50.014;8.352;2023-08-21T03:39:02;23.40;99.90
28761;DHT22;15917;50.014;8.352;2023-08-21T03:41:32;23.40;99.90
28761;DHT22;15917;50.014;8.352;2023-08-21T03:43:59;23.40;99.90
28761;DHT22;15917;50.014;8.352;2023-08-21T03:46:25;23.40;99.90
28761;DHT22;15917;50.014;8.352;2023-08-21T03:48:51;23.40;99.90
28761;DHT22;15917;50.014;8.352;2023-08-21T03:51:16;23.30;99.90
28761;DHT22;15917;50.014;8.352;2023-08-21T03:53:42;23.30;99.90
28761;DHT22;15917;50.014;8.352;2023-08-21T03:56:08;23.30;99.90
28761;DHT22;15917;50.014;8.352;2023-08-21T03:58:33;23.30;99.90
28761;DHT22;15917;50.014;8.352;2023-08-21T04:00:59;23.30;99.90
28761;DHT22;15917;50.014;8.352;2023-08-21T04:03:25;23.30;99.90
28761;DHT22;15917;50.014;8.352;2023-08-21T04:05:53;23.20;99.90
28761;DHT22;15917;50.014;8.352;2023-08-21T04:08:19;23.30;99.90
28761;DHT22;15917;50.014;8.352;2023-08-21T04:10:44;23.20;99.90
28761;DHT22;15917;50.014;8.352;2023-08-21T04:13:10;23.10;99.90
28761;DHT22;15917;50.014;8.352;2023-08-21T04:15:36;23.20;99.90
28761;DHT22;15917;50.014;8.352;2023-08-21T04:18:04;23.10;99.90
28761;DHT22;15917;50.014;8.352;2023-08-21T04:20:30;23.10;99.90
28761;DHT22;15917;50.014;8.352;2023-08-21T04:22:56;23.10;99.90
28761;DHT22;15917;50.014;8.352;2023-08-21T04:25:21;23.00;99.90
28761;DHT22;15917;50.014;8.352;2023-08-21T04:27:47;23.00;99.90
28761;DHT22;15917;50.014;8.352;2023-08-21T04:30:13;23.00;99.90
28761;DHT22;15917;50.014;8.352;2023-08-21T04:32:39;23.00;99.90
28761;DHT22;15917;50.014;8.352;2023-08-21T04:35:06;23.00;99.90
28761;DHT22;15917;50.014;8.352;2023-08-21T04:37:34;23.00;99.90
28761;DHT22;15917;50.014;8.352;2023-08-21T04:40:01;23.20;99.90
28761;DHT22;15917;50.014;8.352;2023-08-21T04:42:27;23.20;99.90
28761;DHT22;15917;50.014;8.352;2023-08-21T04:44:53;23.30;99.90
28761;DHT22;15917;50.014;8.352;2023-08-21T04:47:20;23.40;99.90
28761;DHT22;15917;50.014;8.352;2023-08-21T04:49:48;23.40;99.90
28761;DHT22;15917;50.014;8.352;2023-08-21T04:52:14;23.50;99.90
28761;DHT22;15917;50.014;8.352;2023-08-21T04:54:40;23.50;99.90
28761;DHT22;15917;50.014;8.352;2023-08-21T04:57:06;23.60;99.90
28761;DHT22;15917;50.014;8.352;2023-08-21T04:59:31;23.60;99.90
28761;DHT22;15917;50.014;8.352;2023-08-21T05:01:57;23.60;99.90
28761;DHT22;15917;50.014;8.352;2023-08-21T05:04:23;23.70;99.90
28761;DHT22;15917;50.014;8.352;2023-08-21T05:06:49;23.70;99.90
28761;DHT22;15917;50.014;8.352;2023-08-21T05:09:15;23.70;99.90
28761;DHT22;15917;50.014;8.352;2023-08-21T05:11:41;23.70;99.90
28761;DHT22;15917;50.014;8.352;2023-08-21T05:14:07;23.70;99.90
28761;DHT22;15917;50.014;8.352;2023-08-21T05:16:34;23.60;99.90
28761;DHT22;15917;50.014;8.352;2023-08-21T05:19:00;23.60;99.90
28761;DHT22;15917;50.014;8.352;2023-08-21T05:21:25;23.60;99.90
28761;DHT22;15917;50.014;8.352;2023-08-21T05:23:51;23.60;99.90
28761;DHT22;15917;50.014;8.352;2023-08-21T05:26:17;23.90;99.90
28761;DHT22;15917;50.014;8.352;2023-08-21T05:28:42;23.90;99.90
28761;DHT22;15917;50.014;8.352;2023-08-21T05:31:08;23.90;99.90
28761;DHT22;15917;50.014;8.352;2023-08-21T05:33:45;23.90;99.90
28761;DHT22;15917;50.014;8.352;2023-08-21T05:36:11;23.90;99.90
28761;DHT22;15917;50.014;8.352;2023-08-21T05:38:37;23.80;99.90
28761;DHT22;15917;50.014;8.352;2023-08-21T05:41:02;23.80;99.90
28761;DHT22;15917;50.014;8.352;2023-08-21T05:43:28;23.80;99.90
28761;DHT22;15917;50.014;8.352;2023-08-21T05:45:54;23.90;99.90
28761;DHT22;15917;50.014;8.352;2023-08-21T05:48:29;24.00;99.90
28761;DHT22;15917;50.014;8.352;2023-08-21T05:50:58;24.10;99.90
28761;DHT22;15917;50.014;8.352;2023-08-21T05:53:24;24.10;99.90
28761;DHT22;15917;50.014;8.352;2023-08-21T05:55:53;24.10;99.90
28761;DHT22;15917;50.014;8.352;2023-08-21T05:58:19;24.10;99.90
28761;DHT22;15917;50.014;8.352;2023-08-21T06:00:46;24.20;99.90
28761;DHT22;15917;50.014;8.352;2023-08-21T06:03:12;24.40;99.90
28761;DHT22;15917;50.014;8.352;2023-08-21T06:05:54;24.30;99.90
28761;DHT22;15917;50.014;8.352;2023-08-21T06:08:20;24.30;99.90
28761;DHT22;15917;50.014;8.352;2023-08-21T06:10:45;24.40;99.90
28761;DHT22;15917;50.014;8.352;2023-08-21T06:13:15;24.50;99.90
28761;DHT22;15917;50.014;8.352;2023-08-21T06:15:44;24.50;99.90
28761;DHT22;15917;50.014;8.352;2023-08-21T06:18:11;24.50;99.90
28761;DHT22;15917;50.014;8.352;2023-08-21T06:20:37;24.40;99.90
28761;DHT22;15917;50.014;8.352;2023-08-21T06:23:02;24.50;99.90
28761;DHT22;15917;50.014;8.352;2023-08-21T06:25:28;24.50;99.90
28761;DHT22;15917;50.014;8.352;2023-08-21T06:27:56;24.60;99.90
28761;DHT22;15917;50.014;8.352;2023-08-21T06:30:21;24.70;99.90
28761;DHT22;15917;50.014;8.352;2023-08-21T06:32:47;24.80;99.90
28761;DHT22;15917;50.014;8.352;2023-08-21T06:35:13;24.70;99.90
28761;DHT22;15917;50.014;8.352;2023-08-21T06:37:41;24.80;99.90
28761;DHT22;15917;50.014;8.352;2023-08-21T06:40:08;24.80;99.90
28761;DHT22;15917;50.014;8.352;2023-08-21T06:42:33;24.70;99.90
28761;DHT22;15917;50.014;8.352;2023-08-21T06:45:00;24.70;99.90
28761;DHT22;15917;50.014;8.352;2023-08-21T06:47:25;24.70;99.90
28761;DHT22;15917;50.014;8.352;2023-08-21T06:49:51;24.60;99.90
28761;DHT22;15917;50.014;8.352;2023-08-21T06:52:17;24.50;99.90
28761;DHT22;15917;50.014;8.352;2023-08-21T06:54:42;24.50;99.90
28761;DHT22;15917;50.014;8.352;2023-08-21T06:57:08;24.50;99.90
28761;DHT22;15917;50.014;8.352;2023-08-21T06:59:34;24.70;99.90
28761;DHT22;15917;50.014;8.352;2023-08-21T07:02:02;24.70;99.90
28761;DHT22;15917;50.014;8.352;2023-08-21T07:04:28;24.80;99.90
28761;DHT22;15917;50.014;8.352;2023-08-21T07:06:54;24.90;99.90
28761;DHT22;15917;50.014;8.352;2023-08-21T07:09:19;24.90;99.90
28761;DHT22;15917;50.014;8.352;2023-08-21T07:11:46;24.90;99.90
28761;DHT22;15917;50.014;8.352;2023-08-21T07:14:11;24.90;99.90
28761;DHT22;15917;50.014;8.352;2023-08-21T07:16:39;24.90;99.90
28761;DHT22;15917;50.014;8.352;2023-08-21T07:19:05;25.00;99.90
28761;DHT22;15917;50.014;8.352;2023-08-21T07:21:31;25.00;99.90
28761;DHT22;15917;50.014;8.352;2023-08-21T07:23:56;25.10;99.90
28761;DHT22;15917;50.014;8.352;2023-08-21T07:26:22;25.10;99.90
28761;DHT22;15917;50.014;8.352;2023-08-21T07:28:48;25.10;99.90
28761;DHT22;15917;50.014;8.352;2023-08-21T07:31:13;25.30;99.90
28761;DHT22;15917;50.014;8.352;2023-08-21T07:33:39;25.30;99.90
28761;DHT22;15917;50.014;8.352;2023-08-21T07:36:05;25.40;99.90
28761;DHT22;15917;50.014;8.352;2023-08-21T07:38:31;25.50;99.90
28761;DHT22;15917;50.014;8.352;2023-08-21T07:43:24;25.70;99.90
28761;DHT22;15917;50.014;8.352;2023-08-21T07:45:50;25.80;99.90
28761;DHT22;15917;50.014;8.352;2023-08-21T07:48:15;25.90;99.90
28761;DHT22;15917;50.014;8.352;2023-08-21T07:50:41;26.00;99.90
28761;DHT22;15917;50.014;8.352;2023-08-21T07:53:07;26.00;99.90
28761;DHT22;15917;50.014;8.352;2023-08-21T07:55:32;26.00;99.90
28761;DHT22;15917;50.014;8.352;2023-08-21T07:57:58;26.20;99.90
28761;DHT22;15917;50.014;8.352;2023-08-21T08:00:23;26.30;99.90
28761;DHT22;15917;50.014;8.352;2023-08-21T08:02:49;26.40;99.90
28761;DHT22;15917;50.014;8.352;2023-08-21T08:05:15;26.50;99.90
28761;DHT22;15917;50.014;8.352;2023-08-21T08:07:40;26.50;99.90
28761;DHT22;15917;50.014;8.352;2023-08-21T08:10:06;26.70;99.90
28761;DHT22;15917;50.014;8.352;2023-08-21T08:12:32;26.80;99.90
28761;DHT22;15917;50.014;8.352;2023-08-21T08:14:58;26.90;99.90
28761;DHT22;15917;50.014;8.352;2023-08-21T08:17:24;27.00;99.90
28761;DHT22;15917;50.014;8.352;2023-08-21T08:19:49;27.10;99.90
28761;DHT22;15917;50.014;8.352;2023-08-21T08:22:15;27.10;99.90
28761;DHT22;15917;50.014;8.352;2023-08-21T08:24:40;27.20;99.90
28761;DHT22;15917;50.014;8.352;2023-08-21T08:27:07;27.30;99.90
28761;DHT22;15917;50.014;8.352;2023-08-21T08:29:32;27.40;99.90
28761;DHT22;15917;50.014;8.352;2023-08-21T08:31:58;27.60;99.90
28761;DHT22;15917;50.014;8.352;2023-08-21T08:34:23;27.70;99.90
28761;DHT22;15917;50.014;8.352;2023-08-21T08:36:49;27.70;99.90
28761;DHT22;15917;50.014;8.352;2023-08-21T08:39:17;27.80;99.90
28761;DHT22;15917;50.014;8.352;2023-08-21T08:42:03;28.00;99.90
28761;DHT22;15917;50.014;8.352;2023-08-21T08:44:30;28.10;99.90
28761;DHT22;15917;50.014;8.352;2023-08-21T08:46:56;28.20;99.90
28761;DHT22;15917;50.014;8.352;2023-08-21T08:49:22;28.30;99.90
28761;DHT22;15917;50.014;8.352;2023-08-21T08:51:50;28.40;99.90
28761;DHT22;15917;50.014;8.352;2023-08-21T08:54:17;28.40;99.90
28761;DHT22;15917;50.014;8.352;2023-08-21T08:56:43;28.50;99.90
28761;DHT22;15917;50.014;8.352;2023-08-21T08:59:09;28.60;99.90
28761;DHT22;15917;50.014;8.352;2023-08-21T09:01:35;28.70;99.90
28761;DHT22;15917;50.014;8.352;2023-08-21T09:04:01;28.70;99.90
28761;DHT22;15917;50.014;8.352;2023-08-21T09:06:27;28.70;99.90
28761;DHT22;15917;50.014;8.352;2023-08-21T09:08:54;28.70;99.90
28761;DHT22;15917;50.014;8.352;2023-08-21T09:11:20;28.90;99.90
28761;DHT22;15917;50.014;8.352;2023-08-21T09:13:48;29.10;99.90
28761;DHT22;15917;50.014;8.352;2023-08-21T09:16:14;29.30;99.90
28761;DHT22;15917;50.014;8.352;2023-08-21T09:21:18;29.30;99.90
28761;DHT22;15917;50.014;8.352;2023-08-21T09:23:44;29.40;99.90
28761;DHT22;15917;50.014;8.352;2023-08-21T09:26:21;29.40;99.90
28761;DHT22;15917;50.014;8.352;2023-08-21T09:28:51;29.50;99.90
28761;DHT22;15917;50.014;8.352;2023-08-21T09:31:22;29.40;99.90
28761;DHT22;15917;50.014;8.352;2023-08-21T09:34:02;29.30;99.90
28761;DHT22;15917;50.014;8.352;2023-08-21T09:36:32;29.30;99.90
28761;DHT22;15917;50.014;8.352;2023-08-21T09:38:57;29.40;99.90
28761;DHT22;15917;50.014;8.352;2023-08-21T09:41:25;29.60;99.90
28761;DHT22;15917;50.014;8.352;2023-08-21T09:43:51;29.80;99.90
28761;DHT22;15917;50.014;8.352;2023-08-21T09:46:23;29.90;99.90
28761;DHT22;15917;50.014;8.352;2023-08-21T09:48:51;30.10;99.90
28761;DHT22;15917;50.014;8.352;2023-08-21T09:51:17;30.20;99.90
28761;DHT22;15917;50.014;8.352;2023-08-21T09:53:44;30.10;99.90
28761;DHT22;15917;50.014;8.352;2023-08-21T09:56:10;30.20;99.90
28761;DHT22;15917;50.014;8.352;2023-08-21T09:58:36;30.30;99.90
28761;DHT22;15917;50.014;8.352;2023-08-21T10:01:05;30.30;99.90
28761;DHT22;15917;50.014;8.352;2023-08-21T10:03:38;30.30;99.90
28761;DHT22;15917;50.014;8.352;2023-08-21T10:06:05;30.40;99.90
28761;DHT22;15917;50.014;8.352;2023-08-21T10:08:33;30.30;99.90
28761;DHT22;15917;50.014;8.352;2023-08-21T10:11:04;30.40;99.90
28761;DHT22;15917;50.014;8.352;2023-08-21T10:13:31;30.70;99.90
28761;DHT22;15917;50.014;8.352;2023-08-21T10:15:57;31.00;99.90
28761;DHT22;15917;50.014;8.352;2023-08-21T10:18:29;31.20;99.90
28761;DHT22;15917;50.014;8.352;2023-08-21T10:20:54;31.40;99.90
28761;DHT22;15917;50.014;8.352;2023-08-21T10:25:58;31.50;99.90
28761;DHT22;15917;50.014;8.352;2023-08-21T10:28:24;31.60;99.90
28761;DHT22;15917;50.014;8.352;2023-08-21T10:30:49;31.60;99.90
28761;DHT22;15917;50.014;8.352;2023-08-21T10:33:15;31.60;99.90
28761;DHT22;15917;50.014;8.352;2023-08-21T10:35:41;31.40;99.90
28761;DHT22;15917;50.014;8.352;2023-08-21T10:38:14;31.60;99.90
28761;DHT22;15917;50.014;8.352;2023-08-21T10:41:06;31.50;99.90
28761;DHT22;15917;50.014;8.352;2023-08-21T10:43:45;31.60;99.90
28761;DHT22;15917;50.014;8.352;2023-08-21T10:46:11;31.60;99.90
28761;DHT22;15917;50.014;8.352;2023-08-21T10:48:38;31.60;99.90
28761;DHT22;15917;50.014;8.352;2023-08-21T10:51:07;31.60;99.90
28761;DHT22;15917;50.014;8.352;2023-08-21T10:53:35;31.70;99.90
28761;DHT22;15917;50.014;8.352;2023-08-21T10:56:04;31.80;99.90
28761;DHT22;15917;50.014;8.352;2023-08-21T10:58:43;31.90;99.90
28761;DHT22;15917;50.014;8.352;2023-08-21T11:01:09;31.90;99.90
28761;DHT22;15917;50.014;8.352;2023-08-21T11:03:38;32.00;99.90
28761;DHT22;15917;50.014;8.352;2023-08-21T11:06:06;32.00;99.90
28761;DHT22;15917;50.014;8.352;2023-08-21T11:08:32;32.20;99.90
28761;DHT22;15917;50.014;8.352;2023-08-21T11:10:59;32.20;99.90
28761;DHT22;15917;50.014;8.352;2023-08-21T11:13:25;32.30;99.90
28761;DHT22;15917;50.014;8.352;2023-08-21T11:16:01;32.50;99.90
28761;DHT22;15917;50.014;8.352;2023-08-21T11:18:36;32.60;99.90
28761;DHT22;15917;50.014;8.352;2023-08-21T11:21:06;32.70;99.90
28761;DHT22;15917;50.014;8.352;2023-08-21T11:23:34;32.70;99.90
28761;DHT22;15917;50.014;8.352;2023-08-21T11:26:01;32.90;99.90
28761;DHT22;15917;50.014;8.352;2023-08-21T11:28:29;33.10;99.90
28761;DHT22;15917;50.014;8.352;2023-08-21T11:30:56;33.10;99.90
28761;DHT22;15917;50.014;8.352;2023-08-21T11:33:22;33.20;99.90
28761;DHT22;15917;50.014;8.352;2023-08-21T11:35:48;33.30;99.90
28761;DHT22;15917;50.014;8.352;2023-08-21T11:38:18;33.20;99.90
28761;DHT22;15917;50.014;8.352;2023-08-21T11:40:58;33.30;99.90
28761;DHT22;15917;50.014;8.352;2023-08-21T11:43:39;33.30;99.90
28761;DHT22;15917;50.014;8.352;2023-08-21T11:46:05;33.40;99.90
28761;DHT22;15917;50.014;8.352;2023-08-21T11:48:32;33.40;99.90
28761;DHT22;15917;50.014;8.352;2023-08-21T11:50:58;33.50;99.90
28761;DHT22;15917;50.014;8.352;2023-08-21T11:53:31;33.50;99.90
28761;DHT22;15917;50.014;8.352;2023-08-21T11:55:58;33.40;99.90
28761;DHT22;15917;50.014;8.352;2023-08-21T11:58:26;33.40;99.90
28761;DHT22;15917;50.014;8.352;2023-08-21T12:00:52;33.40;99.90
28761;DHT22;15917;50.014;8.352;2023-08-21T12:03:18;33.60;99.90
28761;DHT22;15917;50.014;8.352;2023-08-21T12:05:44;33.70;99.90
28761;DHT22;15917;50.014;8.352;2023-08-21T12:08:10;33.90;99.90
28761;DHT22;15917;50.014;8.352;2023-08-21T12:10:36;33.90;99.90
28761;DHT22;15917;50.014;8.352;2023-08-21T12:13:01;34.10;99.90
28761;DHT22;15917;50.014;8.352;2023-08-21T12:15:27;34.10;99.90
28761;DHT22;15917;50.014;8.352;2023-08-21T12:17:53;34.00;99.90
28761;DHT22;15917;50.014;8.352;2023-08-21T12:20:18;33.90;99.90
28761;DHT22;15917;50.014;8.352;2023-08-21T12:22:44;33.80;99.90
28761;DHT22;15917;50.014;8.352;2023-08-21T12:25:10;33.80;99.90
28761;DHT22;15917;50.014;8.352;2023-08-21T12:27:36;33.40;99.90
28761;DHT22;15917;50.014;8.352;2023-08-21T12:30:02;32.90;99.90
28761;DHT22;15917;50.014;8.352;2023-08-21T12:32:28;33.00;99.90
28761;DHT22;15917;50.014;8.352;2023-08-21T12:34:53;33.20;99.90
28761;DHT22;15917;50.014;8.352;2023-08-21T12:37:19;33.30;99.90
28761;DHT22;15917;50.014;8.352;2023-08-21T12:39:45;33.10;99.90
28761;DHT22;15917;50.014;8.352;2023-08-21T12:42:10;32.70;99.90
28761;DHT22;15917;50.014;8.352;2023-08-21T12:44:36;32.40;99.90
28761;DHT22;15917;50.014;8.352;2023-08-21T12:47:02;32.30;99.90
28761;DHT22;15917;50.014;8.352;2023-08-21T12:49:28;32.50;99.90
28761;DHT22;15917;50.014;8.352;2023-08-21T12:51:54;33.00;99.90
28761;DHT22;15917;50.014;8.352;2023-08-21T12:54:21;33.40;99.90
28761;DHT22;15917;50.014;8.352;2023-08-21T12:56:46;33.70;99.90
28761;DHT22;15917;50.014;8.352;2023-08-21T12:59:13;34.00;99.90
28761;DHT22;15917;50.014;8.352;2023-08-21T13:01:39;34.20;99.90
28761;DHT22;15917;50.014;8.352;2023-08-21T13:04:04;34.50;99.90
28761;DHT22;15917;50.014;8.352;2023-08-21T13:06:30;34.60;99.90
28761;DHT22;15917;50.014;8.352;2023-08-21T13:08:56;34.70;99.90
28761;DHT22;15917;50.014;8.352;2023-08-21T13:11:21;34.50;99.90
28761;DHT22;15917;50.014;8.352;2023-08-21T13:13:47;34.10;99.90
28761;DHT22;15917;50.014;8.352;2023-08-21T13:16:13;33.70;99.90
28761;DHT22;15917;50.014;8.352;2023-08-21T13:18:39;33.30;99.90
28761;DHT22;15917;50.014;8.352;2023-08-21T13:21:04;33.30;99.90
28761;DHT22;15917;50.014;8.352;2023-08-21T13:23:30;33.10;99.90
28761;DHT22;15917;50.014;8.352;2023-08-21T13:25:57;33.20;99.90
28761;DHT22;15917;50.014;8.352;2023-08-21T13:28:23;33.30;99.90
28761;DHT22;15917;50.014;8.352;2023-08-21T13:30:49;33.50;99.90
28761;DHT22;15917;50.014;8.352;2023-08-21T13:33:15;33.60;99.90
28761;DHT22;15917;50.014;8.352;2023-08-21T13:35:44;33.80;99.90
28761;DHT22;15917;50.014;8.352;2023-08-21T13:38:09;34.00;99.90
28761;DHT22;15917;50.014;8.352;2023-08-21T13:40:35;33.90;99.90
28761;DHT22;15917;50.014;8.352;2023-08-21T13:43:01;33.80;99.90
28761;DHT22;15917;50.014;8.352;2023-08-21T13:45:26;33.90;99.90
28761;DHT22;15917;50.014;8.352;2023-08-21T13:47:52;33.80;99.90
28761;DHT22;15917;50.014;8.352;2023-08-21T13:50:18;33.50;99.90
28761;DHT22;15917;50.014;8.352;2023-08-21T13:52:45;33.30;99.90
28761;DHT22;15917;50.014;8.352;2023-08-21T13:55:12;33.10;99.90
28761;DHT22;15917;50.014;8.352;2023-08-21T13:57:38;33.20;99.90
28761;DHT22;15917;50.014;8.352;2023-08-21T14:00:06;33.50;99.90
28761;DHT22;15917;50.014;8.352;2023-08-21T14:02:38;33.40;99.90
28761;DHT22;15917;50.014;8.352;2023-08-21T14:05:04;33.40;99.90
28761;DHT22;15917;50.014;8.352;2023-08-21T14:07:31;33.80;99.90
28761;DHT22;15917;50.014;8.352;2023-08-21T14:09:57;34.10;99.90
28761;DHT22;15917;50.014;8.352;2023-08-21T14:12:23;34.20;99.90
28761;DHT22;15917;50.014;8.352;2023-08-21T14:14:48;34.30;99.90
28761;DHT22;15917;50.014;8.352;2023-08-21T14:17:14;34.20;99.90
28761;DHT22;15917;50.014;8.352;2023-08-21T14:19:40;34.10;99.90
28761;DHT22;15917;50.014;8.352;2023-08-21T14:22:06;34.30;99.90
28761;DHT22;15917;50.014;8.352;2023-08-21T14:24:32;34.60;99.90
28761;DHT22;15917;50.014;8.352;2023-08-21T14:26:58;34.80;99.90
28761;DHT22;15917;50.014;8.352;2023-08-21T14:29:23;35.00;99.90
28761;DHT22;15917;50.014;8.352;2023-08-21T14:31:49;35.10;99.90
28761;DHT22;15917;50.014;8.352;2023-08-21T14:34:19;35.00;99.90
28761;DHT22;15917;50.014;8.352;2023-08-21T14:36:45;34.80;99.90
28761;DHT22;15917;50.014;8.352;2023-08-21T14:39:11;35.00;99.90
28761;DHT22;15917;50.014;8.352;2023-08-21T14:41:37;34.60;99.90
28761;DHT22;15917;50.014;8.352;2023-08-21T14:44:03;34.30;99.90
28761;DHT22;15917;50.014;8.352;2023-08-21T14:46:29;33.80;99.90
28761;DHT22;15917;50.014;8.352;2023-08-21T14:48:55;33.50;99.90
28761;DHT22;15917;50.014;8.352;2023-08-21T14:51:20;33.20;99.90
28761;DHT22;15917;50.014;8.352;2023-08-21T14:53:46;33.10;99.90
28761;DHT22;15917;50.014;8.352;2023-08-21T14:56:12;32.90;99.90
28761;DHT22;15917;50.014;8.352;2023-08-21T14:58:37;32.80;99.90
28761;DHT22;15917;50.014;8.352;2023-08-21T15:01:03;32.80;99.90
28761;DHT22;15917;50.014;8.352;2023-08-21T15:03:30;33.10;99.90
28761;DHT22;15917;50.014;8.352;2023-08-21T15:05:55;33.10;99.90
28761;DHT22;15917;50.014;8.352;2023-08-21T15:08:21;33.30;99.90
28761;DHT22;15917;50.014;8.352;2023-08-21T15:10:46;33.70;99.90
28761;DHT22;15917;50.014;8.352;2023-08-21T15:13:12;34.20;99.90
28761;DHT22;15917;50.014;8.352;2023-08-21T15:15:38;34.60;99.90
28761;DHT22;15917;50.014;8.352;2023-08-21T15:18:03;34.90;99.90
28761;DHT22;15917;50.014;8.352;2023-08-21T15:20:29;35.10;99.90
28761;DHT22;15917;50.014;8.352;2023-08-21T15:22:54;35.20;99.90
28761;DHT22;15917;50.014;8.352;2023-08-21T15:25:20;35.10;99.00
28761;DHT22;15917;50.014;8.352;2023-08-21T15:27:46;35.10;99.20
28761;DHT22;15917;50.014;8.352;2023-08-21T15:30:11;35.00;98.80
28761;DHT22;15917;50.014;8.352;2023-08-21T15:32:37;35.10;98.90
28761;DHT22;15917;50.014;8.352;2023-08-21T15:35:03;35.10;98.40